createdAt,value
2018-11-02T00:01:20.040Z,1.40
2018-11-02T00:03:47.641Z,1.20
2018-11-02T00:06:15.386Z,1.27
2018-11-02T00:08:43.030Z,1.87
2018-11-02T00:11:10.610Z,2.10
2018-11-02T00:13:38.244Z,1.90
2018-11-02T00:16:06.407Z,1.57
2018-11-02T00:18:34.076Z,1.80
2018-11-02T00:21:01.732Z,1.70
2018-11-02T00:23:29.388Z,1.83
2018-11-02T00:25:57.036Z,1.50
2018-11-02T00:28:24.685Z,1.67
2018-11-02T00:30:52.557Z,1.70
2018-11-02T00:33:20.236Z,1.80
2018-11-02T00:35:47.830Z,1.60
2018-11-02T00:38:15.468Z,1.77
2018-11-02T00:40:43.176Z,1.80
2018-11-02T00:43:10.808Z,1.50
2018-11-02T00:45:38.463Z,1.67
2018-11-02T00:48:06.224Z,1.43
2018-11-02T00:53:07.112Z,2.10
2018-11-02T00:55:34.803Z,1.70
2018-11-02T00:58:02.447Z,1.80
2018-11-02T01:00:30.086Z,1.50
2018-11-02T01:02:57.906Z,1.80
2018-11-02T01:05:25.517Z,1.80
2018-11-02T01:07:53.181Z,1.90
2018-11-02T01:10:20.772Z,1.70
2018-11-02T01:12:48.393Z,1.60
2018-11-02T01:15:16.009Z,1.40
2018-11-02T01:17:43.646Z,1.77
2018-11-02T01:20:11.669Z,1.53
2018-11-02T01:22:39.468Z,1.50
2018-11-02T01:25:07.691Z,1.90
2018-11-02T01:27:35.353Z,1.80
2018-11-02T01:30:03.408Z,1.80
2018-11-02T01:32:31.108Z,1.80
2018-11-02T01:34:58.861Z,1.80
2018-11-02T01:37:26.516Z,1.63
2018-11-02T01:39:54.205Z,1.53
2018-11-02T01:42:22.009Z,1.80
2018-11-02T01:44:49.634Z,1.70
2018-11-02T01:47:17.323Z,1.40
2018-11-02T01:49:44.949Z,1.50
2018-11-02T01:52:12.552Z,1.40
2018-11-02T01:54:40.167Z,1.73
2018-11-02T01:57:07.818Z,1.60
2018-11-02T01:59:35.479Z,1.40
2018-11-02T02:02:03.505Z,1.60
2018-11-02T02:04:31.150Z,1.50
2018-11-02T02:06:58.797Z,1.40
2018-11-02T02:09:26.573Z,1.43
2018-11-02T02:11:54.251Z,1.70
2018-11-02T02:14:21.978Z,1.60
2018-11-02T02:16:49.731Z,1.63
2018-11-02T02:19:17.434Z,1.87
2018-11-02T02:21:45.063Z,1.87
2018-11-02T02:24:12.703Z,1.70
2018-11-02T02:26:40.377Z,1.63
2018-11-02T02:29:08.050Z,1.60
2018-11-02T02:31:35.664Z,1.73
2018-11-02T02:34:03.393Z,1.30
2018-11-02T02:36:31.268Z,1.60
2018-11-02T02:38:58.944Z,1.40
2018-11-02T02:41:26.608Z,1.77
2018-11-02T02:43:54.242Z,1.60
2018-11-02T02:46:22.127Z,1.30
2018-11-02T02:48:49.752Z,1.30
2018-11-02T02:51:17.343Z,1.37
2018-11-02T02:53:44.956Z,1.83
2018-11-02T02:56:12.614Z,1.80
2018-11-02T02:58:40.232Z,1.60
2018-11-02T03:01:07.876Z,1.63
2018-11-02T03:03:35.557Z,1.73
2018-11-02T03:06:03.259Z,1.40
2018-11-02T03:08:30.947Z,1.40
2018-11-02T03:10:58.743Z,1.40
2018-11-02T03:13:26.504Z,1.50
2018-11-02T03:15:54.433Z,1.23
2018-11-02T03:18:22.269Z,1.40
2018-11-02T03:20:49.818Z,1.33
2018-11-02T03:23:17.405Z,1.30
2018-11-02T03:25:45.004Z,1.47
2018-11-02T03:28:12.635Z,1.30
2018-11-02T03:30:40.332Z,1.30
2018-11-02T03:33:07.914Z,1.20
2018-11-02T03:35:35.587Z,1.63
2018-11-02T03:38:03.201Z,1.77
2018-11-02T03:40:31.023Z,1.77
2018-11-02T03:42:58.704Z,1.70
2018-11-02T03:45:26.339Z,1.40
2018-11-02T03:47:53.938Z,1.90
2018-11-02T03:50:21.881Z,1.70
2018-11-02T03:52:49.557Z,1.53
2018-11-02T03:55:17.189Z,1.67
2018-11-02T03:57:44.812Z,1.87
2018-11-02T04:00:12.591Z,1.47
2018-11-02T04:02:40.294Z,2.40
2018-11-02T04:05:08.820Z,1.80
2018-11-02T04:07:36.519Z,1.70
2018-11-02T04:10:04.305Z,1.30
2018-11-02T04:12:31.919Z,2.23
2018-11-02T04:14:59.765Z,2.23
2018-11-02T04:17:27.408Z,2.20
2018-11-02T04:19:55.093Z,1.80
2018-11-02T04:22:22.724Z,1.77
2018-11-02T04:24:50.356Z,1.50
2018-11-02T04:27:17.985Z,1.90
2018-11-02T04:29:45.598Z,1.60
2018-11-02T04:32:13.220Z,1.50
2018-11-02T04:34:40.795Z,1.50
2018-11-02T04:37:09.503Z,3.53
2018-11-02T04:39:37.125Z,2.20
2018-11-02T04:42:05.125Z,2.30
2018-11-02T04:44:32.740Z,1.90
2018-11-02T04:47:00.425Z,1.83
2018-11-02T04:49:28.011Z,1.63
2018-11-02T04:51:55.648Z,2.20
2018-11-02T04:54:23.232Z,1.70
2018-11-02T04:56:50.829Z,2.50
2018-11-02T04:59:29.577Z,1.90
2018-11-02T05:02:07.793Z,1.90
2018-11-02T05:04:35.432Z,2.07
2018-11-02T05:07:03.166Z,1.50
2018-11-02T05:09:30.770Z,1.80
2018-11-02T05:11:58.429Z,1.80
2018-11-02T05:14:26.100Z,1.67
2018-11-02T05:16:53.744Z,2.30
2018-11-02T05:19:21.358Z,3.00
2018-11-02T05:21:48.968Z,2.63
2018-11-02T05:24:16.579Z,2.83
2018-11-02T05:26:44.205Z,2.63
2018-11-02T05:29:11.909Z,2.33
2018-11-02T05:31:39.588Z,3.20
2018-11-02T05:34:07.402Z,2.60
2018-11-02T05:36:35.235Z,2.20
2018-11-02T05:39:03.870Z,2.30
2018-11-02T05:41:31.486Z,1.97
2018-11-02T05:43:59.134Z,1.90
2018-11-02T05:46:26.737Z,1.90
2018-11-02T05:48:54.343Z,2.00
2018-11-02T05:51:21.956Z,1.87
2018-11-02T05:53:49.616Z,1.90
2018-11-02T05:56:17.216Z,1.70
2018-11-02T05:58:44.830Z,1.80
2018-11-02T06:01:12.406Z,1.60
2018-11-02T06:03:40.052Z,2.03
2018-11-02T06:06:07.728Z,1.60
2018-11-02T06:08:35.360Z,1.80
2018-11-02T06:11:02.953Z,1.60
2018-11-02T06:13:30.748Z,2.20
2018-11-02T06:15:58.336Z,2.63
2018-11-02T06:18:25.949Z,3.60
2018-11-02T06:20:53.527Z,2.63
2018-11-02T06:23:21.167Z,2.40
2018-11-02T06:25:48.768Z,2.50
2018-11-02T06:28:16.347Z,2.10
2018-11-02T06:30:43.988Z,2.07
2018-11-02T06:33:11.553Z,2.40
2018-11-02T06:35:39.259Z,1.90
2018-11-02T06:38:06.917Z,2.07
2018-11-02T06:40:35.900Z,2.37
2018-11-02T06:43:03.543Z,2.20
2018-11-02T06:45:31.160Z,2.10
2018-11-02T06:47:58.876Z,2.00
2018-11-02T06:50:26.487Z,2.40
2018-11-02T06:52:54.104Z,1.80
2018-11-02T06:55:21.708Z,2.00
2018-11-02T06:57:49.301Z,2.10
2018-11-02T07:00:16.949Z,1.83
2018-11-02T07:02:44.520Z,1.80
2018-11-02T07:05:12.161Z,1.93
2018-11-02T07:07:40.050Z,1.60
2018-11-02T07:10:08.869Z,3.60
2018-11-02T07:12:36.512Z,2.53
2018-11-02T07:15:05.040Z,2.70
2018-11-02T07:17:32.651Z,2.80
2018-11-02T07:20:00.280Z,3.33
2018-11-02T07:22:27.900Z,2.63
2018-11-02T07:24:55.854Z,2.70
2018-11-02T07:27:23.486Z,2.20
2018-11-02T07:29:51.104Z,2.80
2018-11-02T07:32:18.835Z,5.30
2018-11-02T07:34:46.505Z,4.20
2018-11-02T07:37:14.114Z,4.90
2018-11-02T07:39:41.786Z,5.93
2018-11-02T07:42:09.485Z,5.63
2018-11-02T07:44:37.112Z,5.37
2018-11-02T07:47:05.223Z,4.93
2018-11-02T07:49:32.970Z,4.30
2018-11-02T07:52:00.532Z,4.50
2018-11-02T07:54:28.187Z,4.67
2018-11-02T07:56:55.823Z,3.90
2018-11-02T07:59:23.483Z,3.00
2018-11-02T08:01:51.180Z,2.80
2018-11-02T08:04:19.216Z,2.90
2018-11-02T08:06:46.869Z,2.80
2018-11-02T08:09:15.191Z,2.70
2018-11-02T08:11:43.435Z,2.57
2018-11-02T08:14:11.064Z,2.00
2018-11-02T08:16:38.696Z,2.00
2018-11-02T08:19:06.394Z,1.80
2018-11-02T08:21:33.916Z,1.70
2018-11-02T08:24:01.877Z,1.80
2018-11-02T08:26:29.445Z,1.80
2018-11-02T08:28:57.044Z,1.50
2018-11-02T08:31:24.660Z,1.80
2018-11-02T08:33:52.279Z,1.80
2018-11-02T08:36:19.913Z,2.00
2018-11-02T08:38:47.542Z,2.23
2018-11-02T08:41:15.162Z,1.90
2018-11-02T08:43:42.748Z,2.00
2018-11-02T08:46:10.871Z,1.80
2018-11-02T08:48:38.493Z,1.70
2018-11-02T08:51:06.538Z,1.60
2018-11-02T08:53:34.173Z,1.80
2018-11-02T08:56:01.837Z,2.93
2018-11-02T08:58:29.598Z,3.30
2018-11-02T09:00:57.165Z,3.60
2018-11-02T09:03:24.796Z,3.90
2018-11-02T09:05:52.476Z,4.30
2018-11-02T09:08:20.311Z,3.43
2018-11-02T09:10:47.908Z,3.10
2018-11-02T09:13:16.429Z,2.92
2018-11-02T09:15:44.020Z,2.40
2018-11-02T09:18:11.664Z,2.33
2018-11-02T09:20:39.295Z,2.30
2018-11-02T09:23:06.872Z,2.33
2018-11-02T09:25:34.489Z,2.67
2018-11-02T09:28:02.211Z,2.40
2018-11-02T09:30:29.833Z,2.95
2018-11-02T09:32:57.553Z,2.83
2018-11-02T09:35:25.165Z,2.87
2018-11-02T09:37:53.641Z,2.75
2018-11-02T09:40:21.427Z,3.25
2018-11-02T09:42:49.088Z,3.10
2018-11-02T09:45:16.742Z,2.30
2018-11-02T09:47:44.440Z,2.17
2018-11-02T09:50:12.604Z,1.70
2018-11-02T09:52:40.361Z,4.35
2018-11-02T09:55:10.529Z,5.45
2018-11-02T09:57:38.259Z,4.40
2018-11-02T10:00:07.661Z,3.45
2018-11-02T10:02:35.397Z,3.55
2018-11-02T10:05:03.113Z,2.50
2018-11-02T10:07:30.776Z,2.85
2018-11-02T10:09:58.504Z,2.95
2018-11-02T10:12:26.217Z,2.42
2018-11-02T10:14:53.927Z,2.52
2018-11-02T10:17:21.626Z,2.85
2018-11-02T10:19:49.331Z,2.52
2018-11-02T10:22:17.022Z,2.83
2018-11-02T10:24:44.709Z,2.92
2018-11-02T10:27:12.457Z,3.52
2018-11-02T10:29:41.245Z,3.77
2018-11-02T10:32:09.036Z,3.62
2018-11-02T10:34:36.821Z,3.90
2018-11-02T10:37:05.142Z,3.72
2018-11-02T10:39:32.813Z,2.70
2018-11-02T10:42:01.482Z,2.70
2018-11-02T10:44:32.230Z,2.30
2018-11-02T10:47:00.058Z,3.17
2018-11-02T10:49:27.783Z,3.72
2018-11-02T10:51:55.528Z,2.87
2018-11-02T10:54:23.320Z,2.85
2018-11-02T10:56:51.089Z,1.90
2018-11-02T10:59:18.825Z,1.65
2018-11-02T11:01:55.060Z,1.57
2018-11-02T11:04:22.760Z,1.25
2018-11-02T11:06:50.637Z,1.45
2018-11-02T11:09:18.329Z,1.42
2018-11-02T11:11:46.114Z,1.70
2018-11-02T11:14:13.669Z,1.30
2018-11-02T11:16:41.609Z,1.98
2018-11-02T11:19:09.873Z,2.62
2018-11-02T11:21:38.470Z,2.42
2018-11-02T11:24:06.162Z,2.33
2018-11-02T11:26:33.897Z,2.75
2018-11-02T11:29:01.619Z,3.15
2018-11-02T11:31:29.349Z,2.10
2018-11-02T11:33:57.318Z,2.58
2018-11-02T11:36:25.707Z,2.10
2018-11-02T11:39:00.172Z,2.40
2018-11-02T11:41:27.852Z,2.05
2018-11-02T11:43:55.533Z,2.37
2018-11-02T11:46:23.179Z,1.82
2018-11-02T11:48:51.002Z,1.90
2018-11-02T11:51:18.513Z,2.20
2018-11-02T11:53:46.185Z,2.08
2018-11-02T11:56:13.842Z,2.02
2018-11-02T11:58:41.521Z,1.82
2018-11-02T12:01:09.159Z,2.70
2018-11-02T12:03:36.838Z,2.58
2018-11-02T12:06:04.593Z,2.92
2018-11-02T12:08:32.689Z,3.45
2018-11-02T12:11:00.325Z,3.60
2018-11-02T12:13:28.026Z,4.53
2018-11-02T12:15:55.753Z,4.28
2018-11-02T12:18:23.427Z,4.72
2018-11-02T12:20:51.116Z,4.12
2018-11-02T12:23:18.855Z,3.75
2018-11-02T12:25:46.778Z,4.20
2018-11-02T12:28:14.539Z,5.33
2018-11-02T12:30:42.281Z,4.58
2018-11-02T12:33:10.080Z,4.05
2018-11-02T12:35:37.774Z,4.23
2018-11-02T12:38:05.505Z,4.70
2018-11-02T12:40:33.171Z,3.77
2018-11-02T12:43:00.868Z,3.77
2018-11-02T12:45:28.540Z,4.22
2018-11-02T12:47:56.319Z,4.15
2018-11-02T12:50:26.056Z,4.30
2018-11-02T12:52:54.901Z,3.87
2018-11-02T12:55:22.794Z,3.95
2018-11-02T12:57:50.548Z,4.28
2018-11-02T13:00:19.539Z,2.67
2018-11-02T13:02:47.708Z,3.40
2018-11-02T13:05:15.432Z,3.08
2018-11-02T13:07:43.210Z,2.80
2018-11-02T13:10:12.251Z,2.55
2018-11-02T13:12:39.988Z,2.62
2018-11-02T13:15:09.541Z,2.70
2018-11-02T13:17:37.456Z,3.05
2018-11-02T13:20:05.783Z,2.83
2018-11-02T13:22:33.409Z,2.58
2018-11-02T13:25:01.053Z,2.55
2018-11-02T13:27:28.687Z,2.90
2018-11-02T13:29:56.497Z,3.10
2018-11-02T13:32:24.409Z,2.87
2018-11-02T13:34:52.365Z,3.02
2018-11-02T13:37:20.461Z,3.50
2018-11-02T13:39:48.181Z,2.83
2018-11-02T13:42:15.841Z,2.50
2018-11-02T13:44:43.764Z,2.25
2018-11-02T13:47:11.424Z,2.05
2018-11-02T13:49:39.276Z,2.83
2018-11-02T13:52:08.226Z,2.65
2018-11-02T13:54:35.894Z,3.00
2018-11-02T13:57:03.617Z,2.95
2018-11-02T13:59:31.358Z,3.17
2018-11-02T14:01:59.157Z,5.70
2018-11-02T14:04:26.812Z,4.85
2018-11-02T14:06:54.513Z,10.28
2018-11-02T14:09:22.197Z,6.70
2018-11-02T14:11:49.884Z,5.58
2018-11-02T14:14:18.256Z,5.67
2018-11-02T14:16:45.908Z,4.60
2018-11-02T14:19:13.548Z,4.72
2018-11-02T14:21:41.220Z,3.70
2018-11-02T14:24:08.900Z,3.95
2018-11-02T14:26:36.541Z,3.40
2018-11-02T14:29:04.347Z,3.00
2018-11-02T14:31:32.010Z,2.92
2018-11-02T14:33:59.652Z,3.27
2018-11-02T14:36:27.383Z,3.27
2018-11-02T14:38:55.282Z,3.65
2018-11-02T14:41:23.181Z,3.95
2018-11-02T14:43:50.772Z,3.10
2018-11-02T14:46:18.433Z,4.00
2018-11-02T14:48:46.312Z,8.00
2018-11-02T14:51:13.968Z,11.45
2018-11-02T14:53:41.691Z,10.13
2018-11-02T14:56:09.732Z,8.25
2018-11-02T14:58:37.445Z,8.57
2018-11-02T15:01:05.173Z,7.22
2018-11-02T15:03:32.793Z,7.15
2018-11-02T15:06:00.809Z,5.95
2018-11-02T15:08:28.453Z,5.97
2018-11-02T15:10:56.203Z,5.62
2018-11-02T15:13:23.929Z,4.35
2018-11-02T15:15:51.608Z,3.83
2018-11-02T15:18:19.195Z,3.27
2018-11-02T15:20:47.987Z,3.08
2018-11-02T15:23:15.585Z,2.58
2018-11-02T15:25:43.372Z,2.12
2018-11-02T15:28:11.054Z,2.67
2018-11-02T15:30:38.857Z,2.40
2018-11-02T15:33:06.541Z,2.25
2018-11-02T15:35:34.233Z,1.80
2018-11-02T15:38:01.807Z,1.90
2018-11-02T15:40:29.609Z,1.70
2018-11-02T15:42:57.278Z,1.70
2018-11-02T15:45:25.040Z,1.70
2018-11-02T15:47:52.667Z,1.40
2018-11-02T15:50:20.592Z,1.50
2018-11-02T15:52:48.196Z,1.32
2018-11-02T15:55:15.881Z,1.60
2018-11-02T15:57:43.544Z,1.20
2018-11-02T16:00:19.368Z,1.20
2018-11-02T16:02:48.570Z,1.40
2018-11-02T16:05:16.290Z,1.40
2018-11-02T16:07:44.352Z,1.60
2018-11-02T16:10:12.352Z,1.47
2018-11-02T16:12:40.687Z,1.80
2018-11-02T16:15:09.092Z,1.70
2018-11-02T16:17:37.936Z,1.50
2018-11-02T16:20:07.379Z,1.30
2018-11-02T16:22:34.952Z,1.50
2018-11-02T16:25:02.684Z,1.50
2018-11-02T16:27:30.351Z,1.60
2018-11-02T16:29:58.186Z,1.67
2018-11-02T16:32:26.260Z,2.10
2018-11-02T16:34:53.908Z,1.50
2018-11-02T16:37:21.552Z,2.07
2018-11-02T16:39:50.698Z,1.63
2018-11-02T16:42:18.396Z,1.60
2018-11-02T16:44:46.783Z,2.07
2018-11-02T16:47:14.480Z,1.90
2018-11-02T16:49:42.108Z,2.07
2018-11-02T16:52:10.005Z,2.30
2018-11-02T16:54:37.890Z,2.13
2018-11-02T16:57:05.548Z,2.43
2018-11-02T16:59:33.133Z,2.63
2018-11-02T17:02:00.895Z,4.00
2018-11-02T17:04:28.523Z,3.87
2018-11-02T17:06:56.251Z,3.00
2018-11-02T17:09:23.849Z,3.00
2018-11-02T17:11:51.516Z,2.67
2018-11-02T17:14:19.150Z,3.17
2018-11-02T17:16:46.852Z,3.47
2018-11-02T17:19:14.500Z,3.70
2018-11-02T17:21:42.202Z,3.90
2018-11-02T17:24:09.912Z,3.93
2018-11-02T17:26:37.575Z,3.43
2018-11-02T17:29:05.520Z,3.30
2018-11-02T17:31:33.173Z,2.77
2018-11-02T17:34:00.841Z,3.07
2018-11-02T17:36:28.529Z,2.77
2018-11-02T17:38:56.156Z,2.70
2018-11-02T17:41:23.773Z,2.60
2018-11-02T17:43:51.508Z,2.33
2018-11-02T17:46:19.299Z,2.93
2018-11-02T17:48:47.068Z,3.40
2018-11-02T17:51:14.690Z,2.83
2018-11-02T17:53:42.344Z,2.70
2018-11-02T17:56:10.055Z,3.77
2018-11-02T17:58:37.814Z,3.30
2018-11-02T18:01:05.490Z,4.40
2018-11-02T18:03:33.182Z,4.50
2018-11-02T18:06:00.801Z,3.70
2018-11-02T18:08:28.579Z,3.70
2018-11-02T18:10:56.165Z,3.57
2018-11-02T18:13:23.833Z,3.17
2018-11-02T18:15:51.503Z,3.60
2018-11-02T18:18:19.335Z,3.53
2018-11-02T18:20:47.850Z,3.10
2018-11-02T18:23:15.491Z,4.23
2018-11-02T18:25:43.089Z,3.27
2018-11-02T18:28:10.714Z,3.00
2018-11-02T18:30:38.326Z,2.77
2018-11-02T18:33:05.972Z,3.30
2018-11-02T18:35:33.710Z,4.30
2018-11-02T18:38:01.252Z,4.70
2018-11-02T18:40:28.924Z,3.23
2018-11-02T18:42:57.622Z,3.00
2018-11-02T18:45:25.330Z,2.90
2018-11-02T18:47:53.065Z,2.87
2018-11-02T18:50:21.653Z,2.30
2018-11-02T18:52:49.857Z,2.87
2018-11-02T18:55:18.222Z,2.10
2018-11-02T18:57:45.801Z,2.90
2018-11-02T19:00:13.778Z,2.90
2018-11-02T19:02:41.561Z,2.67
2018-11-02T19:05:11.808Z,2.70
2018-11-02T19:07:39.631Z,3.00
2018-11-02T19:10:08.745Z,2.50
2018-11-02T19:12:36.877Z,2.30
2018-11-02T19:15:06.407Z,2.90
2018-11-02T19:17:34.051Z,2.73
2018-11-02T19:20:01.783Z,3.00
2018-11-02T19:22:29.248Z,2.30
2018-11-02T19:24:56.891Z,2.23
2018-11-02T19:27:24.537Z,2.10
2018-11-02T19:29:52.262Z,1.77
2018-11-02T19:32:19.884Z,1.77
2018-11-02T19:34:47.618Z,2.00
2018-11-02T19:37:15.118Z,1.83
2018-11-02T19:39:42.735Z,2.70
2018-11-02T19:42:10.366Z,1.83
2018-11-02T19:44:38.131Z,2.00
2018-11-02T19:47:05.801Z,2.30
2018-11-02T19:49:33.439Z,2.10
2018-11-02T19:52:01.074Z,1.80
2018-11-02T19:54:28.700Z,2.00
2018-11-02T19:56:56.361Z,1.70
2018-11-02T19:59:24.025Z,2.40
2018-11-02T20:01:52.749Z,2.50
2018-11-02T20:04:20.367Z,3.20
2018-11-02T20:06:47.976Z,3.23
2018-11-02T20:09:15.629Z,3.30
2018-11-02T20:11:43.353Z,3.00
2018-11-02T20:14:10.991Z,2.90
2018-11-02T20:16:38.644Z,3.23
2018-11-02T20:19:06.369Z,2.40
2018-11-02T20:21:33.987Z,2.80
2018-11-02T20:24:01.678Z,2.27
2018-11-02T20:26:29.328Z,2.47
2018-11-02T20:28:56.949Z,2.00
2018-11-02T20:31:24.584Z,2.00
2018-11-02T20:33:52.214Z,2.17
2018-11-02T20:36:19.866Z,2.00
2018-11-02T20:38:47.490Z,1.73
2018-11-02T20:41:15.143Z,1.73
2018-11-02T20:43:42.777Z,1.57
2018-11-02T20:46:10.431Z,1.77
2018-11-02T20:48:38.124Z,1.77
2018-11-02T20:51:05.860Z,1.93
2018-11-02T20:53:33.448Z,1.80
2018-11-02T20:56:01.109Z,1.27
2018-11-02T20:58:28.803Z,1.37
2018-11-02T21:00:56.431Z,1.90
2018-11-02T21:03:24.041Z,2.33
2018-11-02T21:05:51.671Z,2.17
2018-11-02T21:08:19.961Z,2.03
2018-11-02T21:10:48.265Z,1.87
2018-11-02T21:13:15.928Z,1.93
2018-11-02T21:15:43.677Z,2.00
2018-11-02T21:18:11.263Z,2.17
2018-11-02T21:20:38.890Z,2.27
2018-11-02T21:23:06.594Z,1.80
2018-11-02T21:25:34.208Z,1.77
2018-11-02T21:28:01.882Z,2.40
2018-11-02T21:30:29.489Z,3.10
2018-11-02T21:32:57.050Z,2.83
2018-11-02T21:35:24.761Z,2.42
2018-11-02T21:37:52.530Z,2.43
2018-11-02T21:40:21.428Z,2.80
2018-11-02T21:42:49.065Z,3.40
2018-11-02T21:45:18.088Z,3.00
2018-11-02T21:47:45.932Z,2.60
2018-11-02T21:50:13.961Z,2.90
2018-11-02T21:52:41.645Z,2.23
2018-11-02T21:55:09.364Z,2.07
2018-11-02T21:57:36.960Z,2.00
2018-11-02T22:00:06.516Z,2.57
2018-11-02T22:02:34.205Z,2.33
2018-11-02T22:05:01.807Z,1.97
2018-11-02T22:07:29.513Z,2.30
2018-11-02T22:09:57.177Z,2.00
2018-11-02T22:12:24.775Z,1.90
2018-11-02T22:14:52.376Z,1.80
2018-11-02T22:17:20.145Z,2.03
2018-11-02T22:19:47.759Z,1.87
2018-11-02T22:22:15.370Z,2.10
2018-11-02T22:24:42.981Z,1.73
2018-11-02T22:27:10.662Z,1.60
2018-11-02T22:29:38.227Z,1.80
2018-11-02T22:32:05.868Z,1.90
2018-11-02T22:34:33.472Z,1.80
2018-11-02T22:37:01.084Z,1.80
2018-11-02T22:39:28.636Z,1.90
2018-11-02T22:41:56.217Z,2.00
2018-11-02T22:44:23.885Z,1.90
2018-11-02T22:46:51.498Z,2.17
2018-11-02T22:49:19.119Z,1.97
2018-11-02T22:51:46.972Z,2.70
2018-11-02T22:54:14.623Z,3.13
2018-11-02T22:56:42.149Z,2.50
2018-11-02T22:59:10.020Z,2.57
2018-11-02T23:01:49.783Z,2.83
2018-11-02T23:04:17.388Z,2.70
2018-11-02T23:06:45.017Z,2.40
2018-11-02T23:09:12.619Z,2.20
2018-11-02T23:11:40.300Z,2.00
2018-11-02T23:14:08.090Z,2.30
2018-11-02T23:16:36.372Z,2.20
2018-11-02T23:19:04.235Z,1.97
2018-11-02T23:21:31.796Z,1.90
2018-11-02T23:23:59.383Z,2.40
2018-11-02T23:26:28.002Z,2.10
2018-11-02T23:28:55.720Z,2.73
2018-11-02T23:31:23.265Z,2.93
2018-11-02T23:33:50.922Z,2.70
2018-11-02T23:36:18.517Z,2.40
2018-11-02T23:38:46.332Z,2.00
2018-11-02T23:44:17.696Z,2.33
2018-11-02T23:46:45.334Z,2.27
2018-11-02T23:49:13.128Z,2.43
2018-11-02T23:51:40.728Z,2.00
2018-11-02T23:54:10.386Z,2.13
2018-11-02T23:56:38.024Z,2.70
2018-11-02T23:59:05.830Z,2.03
